createdAt,value
2018-11-04T00:00:13.112Z,13.23
2018-11-04T00:02:42.231Z,12.83
2018-11-04T00:05:10.663Z,12.87
2018-11-04T00:07:39.011Z,13.07
2018-11-04T00:10:08.222Z,12.50
2018-11-04T00:12:36.799Z,12.70
2018-11-04T00:15:05.626Z,12.37
2018-11-04T00:17:34.002Z,11.30
2018-11-04T00:20:02.433Z,12.67
2018-11-04T00:22:30.865Z,11.87
2018-11-04T00:24:59.216Z,11.27
2018-11-04T00:27:27.542Z,11.03
2018-11-04T00:29:56.019Z,12.50
2018-11-04T00:32:24.321Z,11.47
2018-11-04T00:34:52.687Z,11.40
2018-11-04T00:37:20.996Z,13.70
2018-11-04T00:39:49.374Z,11.37
2018-11-04T00:42:17.732Z,11.50
2018-11-04T00:44:46.111Z,11.53
2018-11-04T00:47:14.513Z,11.80
2018-11-04T00:49:42.844Z,11.23
2018-11-04T00:52:11.338Z,10.73
2018-11-04T00:54:39.677Z,11.33
2018-11-04T00:57:08.339Z,11.70
2018-11-04T00:59:36.731Z,16.37
2018-11-04T01:02:05.140Z,13.97
2018-11-04T01:04:33.505Z,11.37
2018-11-04T01:07:01.901Z,12.03
2018-11-04T01:09:30.303Z,11.30
2018-11-04T01:11:58.719Z,12.27
2018-11-04T01:14:27.065Z,11.37
2018-11-04T01:16:55.495Z,13.27
2018-11-04T01:19:23.887Z,11.13
2018-11-04T01:21:52.456Z,12.17
2018-11-04T01:24:20.922Z,12.03
2018-11-04T01:26:49.274Z,11.70
2018-11-04T01:29:17.687Z,10.97
2018-11-04T01:31:45.996Z,11.13
2018-11-04T01:34:14.475Z,11.77
2018-11-04T01:36:42.771Z,10.57
2018-11-04T01:39:11.371Z,10.40
2018-11-04T01:41:39.886Z,11.90
2018-11-04T01:44:10.785Z,10.57
2018-11-04T01:46:39.784Z,10.90
2018-11-04T01:49:08.452Z,11.47
2018-11-04T01:51:36.985Z,11.10
2018-11-04T01:54:05.522Z,11.23
2018-11-04T01:56:33.897Z,11.00
2018-11-04T01:59:02.463Z,10.57
2018-11-04T02:01:30.808Z,10.77
2018-11-04T02:03:59.089Z,12.00
2018-11-04T02:06:27.460Z,10.93
2018-11-04T02:08:55.865Z,10.60
2018-11-04T02:11:24.583Z,18.73
2018-11-04T02:13:53.010Z,19.77
2018-11-04T02:16:21.416Z,16.30
2018-11-04T10:20:59.952Z,13.95
2018-11-04T10:23:28.383Z,14.40
2018-11-04T10:25:56.762Z,16.00
2018-11-04T10:28:25.261Z,13.85
2018-11-04T10:30:53.605Z,15.65
2018-11-04T10:33:21.950Z,13.70
2018-11-04T10:35:50.376Z,14.30
2018-11-04T10:38:18.705Z,13.22
2018-11-04T10:40:47.555Z,12.33
2018-11-04T10:43:16.087Z,10.93
2018-11-04T10:45:44.471Z,11.30
2018-11-04T10:48:12.807Z,9.38
2018-11-04T10:50:41.179Z,8.85
2018-11-04T10:53:09.531Z,10.08
2018-11-04T10:55:37.864Z,10.32
2018-11-04T10:58:06.276Z,8.55
2018-11-04T11:00:39.929Z,10.15
2018-11-04T11:03:08.369Z,8.18
2018-11-04T11:05:36.702Z,8.70
2018-11-04T11:08:05.215Z,8.95
2018-11-04T11:10:33.567Z,9.00
2018-11-04T11:13:01.886Z,9.00
2018-11-04T11:15:30.256Z,9.18
2018-11-04T11:17:58.590Z,8.83
2018-11-04T11:20:26.977Z,8.95
2018-11-04T11:22:55.478Z,8.30
2018-11-04T11:25:23.735Z,8.35
2018-11-04T11:27:52.351Z,8.80
2018-11-04T11:30:20.805Z,7.47
2018-11-04T11:32:49.162Z,8.70
2018-11-04T11:35:17.601Z,8.85
2018-11-04T11:37:46.530Z,9.38
2018-11-04T11:40:14.909Z,8.73
2018-11-04T11:42:43.291Z,7.70
2018-11-04T11:45:11.691Z,7.50
2018-11-04T11:47:40.095Z,8.28
2018-11-04T11:50:08.850Z,8.55
2018-11-04T11:52:37.341Z,8.00
2018-11-04T11:55:06.222Z,7.67
2018-11-04T11:57:34.986Z,7.83
2018-11-04T12:00:03.674Z,7.78
2018-11-04T12:02:32.035Z,6.75
2018-11-04T12:05:01.603Z,8.23
2018-11-04T12:07:30.000Z,7.65
2018-11-04T12:09:58.398Z,7.87
2018-11-04T12:12:26.770Z,7.80
2018-11-04T12:14:55.197Z,8.18
2018-11-04T12:17:23.662Z,7.70
2018-11-04T12:19:52.069Z,7.47
2018-11-04T12:22:20.481Z,7.75
2018-11-04T12:24:49.037Z,12.50
2018-11-04T12:27:17.416Z,13.48
2018-11-04T12:29:45.792Z,7.53
2018-11-04T12:32:14.154Z,7.55
2018-11-04T12:34:42.860Z,7.25
2018-11-04T12:37:11.392Z,9.25
2018-11-04T12:39:39.715Z,7.40
2018-11-04T12:42:08.219Z,5.83
2018-11-04T12:44:36.560Z,6.35
2018-11-04T12:47:05.319Z,5.92
2018-11-04T12:49:33.682Z,6.42
2018-11-04T12:52:02.505Z,5.80
2018-11-04T12:54:30.941Z,6.97
2018-11-04T12:57:00.045Z,8.18
2018-11-04T12:59:28.346Z,7.72
2018-11-04T13:01:56.742Z,6.37
2018-11-04T13:04:24.981Z,10.53
2018-11-04T13:06:53.316Z,10.30
2018-11-04T13:09:21.766Z,6.60
2018-11-04T13:11:50.150Z,7.47
2018-11-04T13:14:18.555Z,5.75
2018-11-04T13:16:48.046Z,6.22
2018-11-04T13:19:16.376Z,5.37
2018-11-04T13:21:44.905Z,8.78
2018-11-04T13:24:13.465Z,7.80
2018-11-04T13:26:41.959Z,5.42
2018-11-04T13:29:10.543Z,5.55
2018-11-04T13:31:38.874Z,8.38
2018-11-04T13:34:07.270Z,5.15
2018-11-04T13:36:35.808Z,4.65
2018-11-04T13:39:05.698Z,4.55
2018-11-04T13:41:34.036Z,4.80
2018-11-04T13:44:02.369Z,5.75
2018-11-04T13:46:30.658Z,5.15
2018-11-04T13:48:59.052Z,5.75
2018-11-04T13:51:27.366Z,6.15
2018-11-04T13:53:55.757Z,5.65
2018-11-04T13:56:24.145Z,5.30
2018-11-04T13:58:53.930Z,5.40
2018-11-04T14:01:22.411Z,6.65
2018-11-04T14:03:50.761Z,7.15
2018-11-04T14:06:19.563Z,5.53
2018-11-04T14:08:47.932Z,6.03
2018-11-04T14:11:16.294Z,5.97
2018-11-04T14:13:44.690Z,5.90
2018-11-04T14:16:13.132Z,5.90
2018-11-04T14:18:41.551Z,6.10
2018-11-04T14:21:09.958Z,6.15
2018-11-04T14:23:38.455Z,7.00
2018-11-04T14:26:06.822Z,7.20
2018-11-04T14:28:35.404Z,6.28
2018-11-04T14:31:04.177Z,6.22
2018-11-04T14:33:32.570Z,5.12
2018-11-04T14:36:01.315Z,5.28
2018-11-04T14:38:29.726Z,5.12
2018-11-04T14:40:58.071Z,5.83
2018-11-04T14:43:26.417Z,5.97
2018-11-04T14:45:54.894Z,5.83
2018-11-04T14:48:23.300Z,6.42
2018-11-04T14:50:51.667Z,6.78
2018-11-04T14:53:20.278Z,5.92
2018-11-04T14:55:48.670Z,6.72
2018-11-04T14:58:17.104Z,6.70
2018-11-04T15:00:45.477Z,6.78
2018-11-04T15:03:13.811Z,6.95
2018-11-04T15:05:42.216Z,7.45
2018-11-04T15:08:10.563Z,6.72
2018-11-04T15:10:38.908Z,6.50
2018-11-04T15:13:07.285Z,6.10
2018-11-04T15:15:35.613Z,7.30
2018-11-04T15:18:03.986Z,6.45
2018-11-04T15:20:32.562Z,7.28
2018-11-04T15:23:00.906Z,7.00
2018-11-04T15:25:29.273Z,6.50
2018-11-04T15:27:57.939Z,7.20
2018-11-04T15:30:29.071Z,7.53
2018-11-04T15:33:00.400Z,7.65
2018-11-04T15:35:30.174Z,7.22
2018-11-04T15:37:58.892Z,7.05
2018-11-04T15:40:28.356Z,7.72
2018-11-04T15:42:57.708Z,7.05
2018-11-04T15:45:27.648Z,7.12
2018-11-04T15:47:57.745Z,9.05
2018-11-04T15:50:29.375Z,7.30
2018-11-04T15:52:59.840Z,7.80
2018-11-04T15:55:31.637Z,7.10
2018-11-04T15:58:02.332Z,7.08
2018-11-04T16:00:32.953Z,7.47
2018-11-04T16:03:02.445Z,7.20
2018-11-04T16:05:31.702Z,7.55
2018-11-04T16:08:01.340Z,7.67
2018-11-04T16:10:30.722Z,8.18
2018-11-04T16:13:00.059Z,7.58
2018-11-04T16:15:30.055Z,6.60
2018-11-04T16:17:59.794Z,7.58
2018-11-04T16:20:28.422Z,7.65
2018-11-04T16:22:58.226Z,7.53
2018-11-04T16:25:27.572Z,8.25
2018-11-04T16:27:57.320Z,8.87
2018-11-04T16:30:25.657Z,7.92
2018-11-04T16:32:53.980Z,8.58
2018-11-04T16:35:22.561Z,8.23
2018-11-04T16:37:50.977Z,8.47
2018-11-04T16:40:19.333Z,8.43
2018-11-04T16:42:47.706Z,7.90
2018-11-04T16:45:16.589Z,8.70
2018-11-04T16:47:44.954Z,8.80
2018-11-04T16:50:14.261Z,8.63
2018-11-04T16:52:43.209Z,6.95
2018-11-04T16:55:12.409Z,7.85
2018-11-04T16:57:41.392Z,7.35
2018-11-04T17:00:10.756Z,7.85
2018-11-04T17:02:39.560Z,7.97
2018-11-04T17:05:08.861Z,8.95
2018-11-04T17:07:37.288Z,9.05
2018-11-04T17:10:06.646Z,7.35
2018-11-04T17:12:35.039Z,8.15
2018-11-04T17:15:04.086Z,6.80
2018-11-04T17:17:32.537Z,6.90
2018-11-04T17:20:01.129Z,6.67
2018-11-04T17:22:29.498Z,6.47
2018-11-04T17:24:57.954Z,6.33
2018-11-04T17:27:26.502Z,6.33
2018-11-04T17:29:54.917Z,6.33
2018-11-04T17:32:23.360Z,6.08
2018-11-04T17:34:51.704Z,6.30
2018-11-04T17:37:20.177Z,5.55
2018-11-04T17:39:48.544Z,5.87
2018-11-04T17:42:16.941Z,6.00
2018-11-04T17:44:45.342Z,6.70
2018-11-04T17:47:13.719Z,10.03
2018-11-04T17:49:42.859Z,7.83
2018-11-04T17:52:11.258Z,6.65
2018-11-04T17:54:39.742Z,8.78
2018-11-04T17:57:08.259Z,10.63
2018-11-04T17:59:36.624Z,9.58
2018-11-04T18:02:05.233Z,10.43
2018-11-04T18:04:33.609Z,9.30
2018-11-04T18:07:02.081Z,6.78
2018-11-04T18:09:30.488Z,11.88
2018-11-04T18:11:58.850Z,10.65
2018-11-04T18:14:27.270Z,9.70
2018-11-04T18:16:55.628Z,8.80
2018-11-04T18:19:24.261Z,9.08
2018-11-04T18:21:52.577Z,9.18
2018-11-04T18:24:21.052Z,7.47
2018-11-04T18:26:49.817Z,8.77
2018-11-04T18:29:18.123Z,5.95
2018-11-04T18:31:46.790Z,9.28
2018-11-04T18:34:15.174Z,7.35
2018-11-04T18:36:43.549Z,7.08
2018-11-04T18:39:11.947Z,6.97
2018-11-04T18:41:40.379Z,9.17
2018-11-04T18:44:09.329Z,9.60
2018-11-04T18:46:37.722Z,10.37
2018-11-04T18:49:06.302Z,9.60
2018-11-04T18:51:34.709Z,11.63
2018-11-04T18:54:03.116Z,10.58
2018-11-04T18:56:31.773Z,15.03
2018-11-04T18:59:00.157Z,10.90
2018-11-04T19:01:28.501Z,14.93
2018-11-04T19:03:56.855Z,9.50
2018-11-04T19:06:25.360Z,9.00
2018-11-04T19:08:53.750Z,10.27
2018-11-04T19:11:22.287Z,8.60
2018-11-04T19:13:50.464Z,9.43
2018-11-04T19:16:18.863Z,9.00
2018-11-04T19:18:47.207Z,8.50
2018-11-04T19:21:15.594Z,8.68
2018-11-04T19:23:44.231Z,9.93
2018-11-04T19:26:12.594Z,8.57
2018-11-04T19:28:41.005Z,7.93
2018-11-04T19:31:09.416Z,9.63
2018-11-04T19:33:37.859Z,11.95
2018-11-04T19:36:06.217Z,10.37
2018-11-04T19:38:34.594Z,11.00
2018-11-04T19:41:03.509Z,8.73
2018-11-04T19:43:31.834Z,8.08
2018-11-04T19:46:00.231Z,9.33
2018-11-04T19:48:28.635Z,7.85
2018-11-04T19:50:57.079Z,11.90
2018-11-04T19:53:25.707Z,27.90
2018-11-04T19:55:54.079Z,10.13
2018-11-04T19:58:22.430Z,9.57
2018-11-04T20:00:50.904Z,9.05
2018-11-04T20:03:19.376Z,7.35
2018-11-04T20:05:48.210Z,8.13
2018-11-04T20:08:16.568Z,7.50
2018-11-04T20:10:44.907Z,9.23
2018-11-04T20:13:18.790Z,8.37
2018-11-04T20:15:47.174Z,9.08
2018-11-04T20:18:21.021Z,9.25
2018-11-04T20:20:49.573Z,9.75
2018-11-04T20:23:17.938Z,10.48
2018-11-04T20:26:08.329Z,10.00
2018-11-04T20:28:36.714Z,9.30
2018-11-04T20:31:05.926Z,9.05
2018-11-04T20:33:33.456Z,8.25
2018-11-04T20:36:01.920Z,10.28
2018-11-04T20:38:35.603Z,8.73
2018-11-04T20:41:10.206Z,8.53
2018-11-04T20:43:38.596Z,8.33
2018-11-04T20:46:06.982Z,8.53
2018-11-04T20:48:40.796Z,8.08
2018-11-04T20:51:09.142Z,7.40
2018-11-04T20:53:37.506Z,9.35
2018-11-04T20:56:11.237Z,8.33
2018-11-04T20:58:39.649Z,9.78
2018-11-04T21:01:08.394Z,8.40
2018-11-04T21:03:36.812Z,8.90
2018-11-04T21:06:05.267Z,8.80
2018-11-04T21:08:33.684Z,9.30
2018-11-04T21:11:02.077Z,8.50
2018-11-04T21:13:30.547Z,8.65
2018-11-04T21:15:58.998Z,9.18
2018-11-04T21:18:27.302Z,8.18
2018-11-04T21:20:55.603Z,9.78
2018-11-04T21:23:23.945Z,8.70
2018-11-04T21:25:52.449Z,8.53
2018-11-04T21:28:20.899Z,8.80
2018-11-04T21:30:49.172Z,10.30
2018-11-04T21:33:17.522Z,10.23
2018-11-04T21:35:45.901Z,9.45
2018-11-04T21:38:14.273Z,10.23
2018-11-04T21:40:42.669Z,8.73
2018-11-04T21:43:11.193Z,11.17
2018-11-04T21:45:39.458Z,8.73
2018-11-04T21:48:07.849Z,10.47
2018-11-04T21:50:36.381Z,10.10
2018-11-04T21:53:04.993Z,10.90
2018-11-04T21:55:33.507Z,10.72
2018-11-04T21:58:01.990Z,25.33
2018-11-04T22:00:30.355Z,38.75
2018-11-04T22:02:59.153Z,12.13
2018-11-04T22:05:27.441Z,10.53
2018-11-04T22:07:55.801Z,9.63
2018-11-04T22:10:24.198Z,9.70
2018-11-04T22:12:52.567Z,10.63
2018-11-04T22:15:20.931Z,10.40
2018-11-04T22:17:49.246Z,10.33
2018-11-04T22:20:17.647Z,9.93
2018-11-04T22:22:46.006Z,10.20
2018-11-04T22:25:14.378Z,9.40
2018-11-04T22:27:42.981Z,9.88
2018-11-04T22:30:12.386Z,10.33
2018-11-04T22:32:40.723Z,10.73
2018-11-04T22:35:10.746Z,9.35
2018-11-04T22:37:39.162Z,9.83
2018-11-04T22:40:08.619Z,9.97
2018-11-04T22:42:36.991Z,9.67
2018-11-04T22:45:06.730Z,10.10
2018-11-04T22:47:35.176Z,10.27
2018-11-04T22:50:03.566Z,9.90
2018-11-04T22:52:31.957Z,9.63
2018-11-04T22:55:00.457Z,9.50
2018-11-04T22:57:28.795Z,8.80
2018-11-04T22:59:57.155Z,9.08
2018-11-04T23:02:25.693Z,9.70
2018-11-04T23:04:59.462Z,10.23
2018-11-04T23:07:27.809Z,11.35
2018-11-04T23:09:56.363Z,10.20
2018-11-04T23:12:24.723Z,11.03
2018-11-04T23:14:53.199Z,10.80
2018-11-04T23:17:21.542Z,11.60
2018-11-04T23:19:49.918Z,12.25
2018-11-04T23:22:19.473Z,14.63
2018-11-04T23:24:47.853Z,12.35
2018-11-04T23:27:16.229Z,10.43
2018-11-04T23:29:44.606Z,9.73
2018-11-04T23:32:13.006Z,11.28
2018-11-04T23:34:41.369Z,10.75
2018-11-04T23:37:09.801Z,11.20
2018-11-04T23:39:38.118Z,11.57
2018-11-04T23:42:06.511Z,10.07
2018-11-04T23:44:34.876Z,12.80
2018-11-04T23:47:03.195Z,10.63
2018-11-04T23:49:31.591Z,11.33
2018-11-04T23:52:00.329Z,11.12
2018-11-04T23:54:28.675Z,12.15
2018-11-04T23:56:57.068Z,11.15
2018-11-04T23:59:25.468Z,10.27
